sensor_id;sensor_type;location;lat;lon;timestamp;P1;durP1;ratioP1;P2;durP2;ratioP2
20997;SDS011;10657;51.276;6.390;2023-04-24T00:01:05;6.18;;;2.13;;
20997;SDS011;10657;51.276;6.390;2023-04-24T00:03:33;7.13;;;2.10;;
20997;SDS011;10657;51.276;6.390;2023-04-24T00:06:01;6.13;;;1.98;;
20997;SDS011;10657;51.276;6.390;2023-04-24T00:08:28;6.38;;;2.50;;
20997;SDS011;10657;51.276;6.390;2023-04-24T00:10:55;7.70;;;2.78;;
20997;SDS011;10657;51.276;6.390;2023-04-24T00:13:22;7.15;;;2.35;;
20997;SDS011;10657;51.276;6.390;2023-04-24T00:15:49;6.53;;;2.33;;
20997;SDS011;10657;51.276;6.390;2023-04-24T00:18:15;7.70;;;2.40;;
20997;SDS011;10657;51.276;6.390;2023-04-24T00:20:42;7.70;;;2.38;;
20997;SDS011;10657;51.276;6.390;2023-04-24T00:23:09;7.90;;;3.10;;
20997;SDS011;10657;51.276;6.390;2023-04-24T00:25:36;6.35;;;2.80;;
20997;SDS011;10657;51.276;6.390;2023-04-24T00:28:02;7.45;;;2.95;;
20997;SDS011;10657;51.276;6.390;2023-04-24T00:30:29;8.70;;;3.20;;
20997;SDS011;10657;51.276;6.390;2023-04-24T00:32:56;9.18;;;4.03;;
20997;SDS011;10657;51.276;6.390;2023-04-24T00:35:24;8.57;;;3.88;;
20997;SDS011;10657;51.276;6.390;2023-04-24T00:37:50;6.45;;;3.10;;
20997;SDS011;10657;51.276;6.390;2023-04-24T00:40:17;7.95;;;3.60;;
20997;SDS011;10657;51.276;6.390;2023-04-24T00:42:44;9.60;;;4.18;;
20997;SDS011;10657;51.276;6.390;2023-04-24T00:45:11;7.55;;;4.03;;
20997;SDS011;10657;51.276;6.390;2023-04-24T00:47:38;9.75;;;3.70;;
20997;SDS011;10657;51.276;6.390;2023-04-24T00:50:07;8.00;;;3.90;;
20997;SDS011;10657;51.276;6.390;2023-04-24T00:52:34;9.32;;;4.47;;
20997;SDS011;10657;51.276;6.390;2023-04-24T00:55:02;8.02;;;3.72;;
20997;SDS011;10657;51.276;6.390;2023-04-24T00:57:29;9.18;;;4.05;;
20997;SDS011;10657;51.276;6.390;2023-04-24T00:59:56;3.95;;;1.75;;
20997;SDS011;10657;51.276;6.390;2023-04-24T01:02:23;9.90;;;3.95;;
20997;SDS011;10657;51.276;6.390;2023-04-24T01:04:50;9.55;;;4.25;;
20997;SDS011;10657;51.276;6.390;2023-04-24T01:07:20;8.82;;;4.35;;
20997;SDS011;10657;51.276;6.390;2023-04-24T01:09:48;7.57;;;3.63;;
20997;SDS011;10657;51.276;6.390;2023-04-24T01:12:17;9.20;;;3.90;;
20997;SDS011;10657;51.276;6.390;2023-04-24T01:14:44;6.53;;;2.67;;
20997;SDS011;10657;51.276;6.390;2023-04-24T01:17:11;6.90;;;3.05;;
20997;SDS011;10657;51.276;6.390;2023-04-24T01:19:38;8.48;;;4.32;;
20997;SDS011;10657;51.276;6.390;2023-04-24T01:22:15;9.32;;;4.07;;
20997;SDS011;10657;51.276;6.390;2023-04-24T01:24:43;9.40;;;4.05;;
20997;SDS011;10657;51.276;6.390;2023-04-24T01:27:10;8.82;;;4.35;;
20997;SDS011;10657;51.276;6.390;2023-04-24T01:29:37;10.63;;;4.40;;
20997;SDS011;10657;51.276;6.390;2023-04-24T01:32:04;11.65;;;4.65;;
20997;SDS011;10657;51.276;6.390;2023-04-24T01:34:31;10.60;;;5.10;;
20997;SDS011;10657;51.276;6.390;2023-04-24T01:36:58;10.27;;;4.88;;
20997;SDS011;10657;51.276;6.390;2023-04-24T01:39:25;11.75;;;5.97;;
20997;SDS011;10657;51.276;6.390;2023-04-24T01:41:54;12.43;;;5.32;;
20997;SDS011;10657;51.276;6.390;2023-04-24T01:44:22;7.10;;;2.78;;
20997;SDS011;10657;51.276;6.390;2023-04-24T01:46:49;7.88;;;3.65;;
20997;SDS011;10657;51.276;6.390;2023-04-24T01:49:16;11.68;;;5.20;;
20997;SDS011;10657;51.276;6.390;2023-04-24T01:51:43;10.50;;;4.60;;
20997;SDS011;10657;51.276;6.390;2023-04-24T01:54:10;10.65;;;4.70;;
20997;SDS011;10657;51.276;6.390;2023-04-24T01:56:38;14.10;;;6.10;;
20997;SDS011;10657;51.276;6.390;2023-04-24T01:59:11;11.48;;;5.60;;
20997;SDS011;10657;51.276;6.390;2023-04-24T02:01:38;15.05;;;6.47;;
20997;SDS011;10657;51.276;6.390;2023-04-24T02:04:05;12.07;;;5.50;;
20997;SDS011;10657;51.276;6.390;2023-04-24T02:06:33;13.40;;;5.70;;
20997;SDS011;10657;51.276;6.390;2023-04-24T02:09:00;7.10;;;2.95;;
20997;SDS011;10657;51.276;6.390;2023-04-24T02:11:27;12.68;;;6.88;;
20997;SDS011;10657;51.276;6.390;2023-04-24T02:13:54;12.30;;;6.65;;
20997;SDS011;10657;51.276;6.390;2023-04-24T02:16:20;14.00;;;5.93;;
20997;SDS011;10657;51.276;6.390;2023-04-24T02:18:47;12.90;;;6.70;;
20997;SDS011;10657;51.276;6.390;2023-04-24T02:21:14;16.00;;;8.38;;
20997;SDS011;10657;51.276;6.390;2023-04-24T02:23:40;16.20;;;8.30;;
20997;SDS011;10657;51.276;6.390;2023-04-24T02:26:07;15.10;;;7.28;;
20997;SDS011;10657;51.276;6.390;2023-04-24T02:28:34;13.70;;;8.10;;
20997;SDS011;10657;51.276;6.390;2023-04-24T02:31:01;12.57;;;6.40;;
20997;SDS011;10657;51.276;6.390;2023-04-24T02:33:28;16.67;;;9.20;;
20997;SDS011;10657;51.276;6.390;2023-04-24T02:35:54;12.55;;;5.15;;
20997;SDS011;10657;51.276;6.390;2023-04-24T02:38:21;17.25;;;8.85;;
20997;SDS011;10657;51.276;6.390;2023-04-24T02:40:48;18.08;;;8.82;;
20997;SDS011;10657;51.276;6.390;2023-04-24T02:43:15;16.85;;;7.25;;
20997;SDS011;10657;51.276;6.390;2023-04-24T02:45:41;18.27;;;8.68;;
20997;SDS011;10657;51.276;6.390;2023-04-24T02:48:08;15.38;;;7.03;;
20997;SDS011;10657;51.276;6.390;2023-04-24T02:50:35;18.27;;;8.90;;
20997;SDS011;10657;51.276;6.390;2023-04-24T02:53:01;16.70;;;8.70;;
20997;SDS011;10657;51.276;6.390;2023-04-24T02:55:28;18.58;;;8.68;;
20997;SDS011;10657;51.276;6.390;2023-04-24T02:57:55;14.88;;;7.50;;
20997;SDS011;10657;51.276;6.390;2023-04-24T03:00:21;17.98;;;8.95;;
20997;SDS011;10657;51.276;6.390;2023-04-24T03:02:48;14.65;;;7.55;;
20997;SDS011;10657;51.276;6.390;2023-04-24T03:05:16;22.00;;;10.20;;
20997;SDS011;10657;51.276;6.390;2023-04-24T03:07:42;17.73;;;8.55;;
20997;SDS011;10657;51.276;6.390;2023-04-24T03:10:09;13.35;;;6.03;;
20997;SDS011;10657;51.276;6.390;2023-04-24T03:12:36;17.38;;;8.02;;
20997;SDS011;10657;51.276;6.390;2023-04-24T03:15:02;17.35;;;8.80;;
20997;SDS011;10657;51.276;6.390;2023-04-24T03:17:29;14.80;;;8.23;;
20997;SDS011;10657;51.276;6.390;2023-04-24T03:19:56;17.55;;;9.00;;
20997;SDS011;10657;51.276;6.390;2023-04-24T03:22:22;16.95;;;8.30;;
20997;SDS011;10657;51.276;6.390;2023-04-24T03:24:49;22.08;;;8.73;;
20997;SDS011;10657;51.276;6.390;2023-04-24T03:27:16;15.50;;;7.57;;
20997;SDS011;10657;51.276;6.390;2023-04-24T03:29:42;16.27;;;8.43;;
20997;SDS011;10657;51.276;6.390;2023-04-24T03:32:09;13.45;;;8.48;;
20997;SDS011;10657;51.276;6.390;2023-04-24T03:34:36;15.20;;;7.88;;
20997;SDS011;10657;51.276;6.390;2023-04-24T03:37:03;13.52;;;7.68;;
20997;SDS011;10657;51.276;6.390;2023-04-24T03:39:29;12.40;;;6.68;;
20997;SDS011;10657;51.276;6.390;2023-04-24T03:41:56;13.75;;;7.22;;
20997;SDS011;10657;51.276;6.390;2023-04-24T03:44:22;16.52;;;7.45;;
20997;SDS011;10657;51.276;6.390;2023-04-24T03:46:49;8.27;;;3.20;;
20997;SDS011;10657;51.276;6.390;2023-04-24T03:49:16;11.75;;;5.43;;
20997;SDS011;10657;51.276;6.390;2023-04-24T03:51:42;16.58;;;8.18;;
20997;SDS011;10657;51.276;6.390;2023-04-24T03:54:09;13.43;;;7.22;;
20997;SDS011;10657;51.276;6.390;2023-04-24T03:56:35;15.50;;;6.93;;
20997;SDS011;10657;51.276;6.390;2023-04-24T03:59:02;21.88;;;9.43;;
20997;SDS011;10657;51.276;6.390;2023-04-24T04:01:29;12.20;;;6.30;;
20997;SDS011;10657;51.276;6.390;2023-04-24T04:03:56;15.57;;;5.22;;
20997;SDS011;10657;51.276;6.390;2023-04-24T04:06:23;14.68;;;8.65;;
20997;SDS011;10657;51.276;6.390;2023-04-24T04:08:50;12.98;;;7.68;;
20997;SDS011;10657;51.276;6.390;2023-04-24T04:11:17;10.77;;;6.15;;
20997;SDS011;10657;51.276;6.390;2023-04-24T04:13:43;17.70;;;7.03;;
20997;SDS011;10657;51.276;6.390;2023-04-24T04:16:10;13.23;;;6.75;;
20997;SDS011;10657;51.276;6.390;2023-04-24T04:18:37;15.15;;;6.47;;
20997;SDS011;10657;51.276;6.390;2023-04-24T04:21:03;11.55;;;6.10;;
20997;SDS011;10657;51.276;6.390;2023-04-24T04:23:30;13.73;;;6.82;;
20997;SDS011;10657;51.276;6.390;2023-04-24T04:25:58;16.50;;;6.63;;
20997;SDS011;10657;51.276;6.390;2023-04-24T04:28:24;15.23;;;6.75;;
20997;SDS011;10657;51.276;6.390;2023-04-24T04:30:51;18.23;;;7.93;;
20997;SDS011;10657;51.276;6.390;2023-04-24T04:33:21;17.02;;;7.55;;
20997;SDS011;10657;51.276;6.390;2023-04-24T04:35:48;17.58;;;7.45;;
20997;SDS011;10657;51.276;6.390;2023-04-24T04:38:15;12.80;;;6.78;;
20997;SDS011;10657;51.276;6.390;2023-04-24T04:40:43;14.23;;;6.88;;
20997;SDS011;10657;51.276;6.390;2023-04-24T04:43:09;14.57;;;7.10;;
20997;SDS011;10657;51.276;6.390;2023-04-24T04:45:37;15.85;;;7.00;;
20997;SDS011;10657;51.276;6.390;2023-04-24T04:48:06;6.85;;;2.88;;
20997;SDS011;10657;51.276;6.390;2023-04-24T04:50:33;14.82;;;7.05;;
20997;SDS011;10657;51.276;6.390;2023-04-24T04:53:00;8.10;;;3.72;;
20997;SDS011;10657;51.276;6.390;2023-04-24T04:55:27;8.85;;;4.25;;
20997;SDS011;10657;51.276;6.390;2023-04-24T04:57:54;14.13;;;7.45;;
20997;SDS011;10657;51.276;6.390;2023-04-24T05:00:22;11.23;;;5.13;;
20997;SDS011;10657;51.276;6.390;2023-04-24T05:02:51;10.05;;;5.78;;
20997;SDS011;10657;51.276;6.390;2023-04-24T05:05:18;16.50;;;7.63;;
20997;SDS011;10657;51.276;6.390;2023-04-24T05:07:44;10.13;;;5.38;;
20997;SDS011;10657;51.276;6.390;2023-04-24T05:10:11;12.63;;;5.95;;
20997;SDS011;10657;51.276;6.390;2023-04-24T05:12:38;15.50;;;7.85;;
20997;SDS011;10657;51.276;6.390;2023-04-24T05:15:04;18.38;;;7.43;;
20997;SDS011;10657;51.276;6.390;2023-04-24T05:17:32;7.68;;;3.83;;
20997;SDS011;10657;51.276;6.390;2023-04-24T05:19:58;10.60;;;5.88;;
20997;SDS011;10657;51.276;6.390;2023-04-24T05:22:25;14.88;;;7.88;;
20997;SDS011;10657;51.276;6.390;2023-04-24T05:24:52;13.73;;;6.65;;
20997;SDS011;10657;51.276;6.390;2023-04-24T05:27:19;11.63;;;5.68;;
20997;SDS011;10657;51.276;6.390;2023-04-24T05:29:46;14.18;;;6.32;;
20997;SDS011;10657;51.276;6.390;2023-04-24T05:32:13;14.50;;;6.53;;
20997;SDS011;10657;51.276;6.390;2023-04-24T05:34:39;14.80;;;7.28;;
20997;SDS011;10657;51.276;6.390;2023-04-24T05:37:06;14.32;;;7.47;;
20997;SDS011;10657;51.276;6.390;2023-04-24T05:39:36;11.20;;;5.28;;
20997;SDS011;10657;51.276;6.390;2023-04-24T05:42:02;14.52;;;6.75;;
20997;SDS011;10657;51.276;6.390;2023-04-24T05:44:30;10.57;;;5.95;;
20997;SDS011;10657;51.276;6.390;2023-04-24T05:46:57;10.05;;;4.32;;
20997;SDS011;10657;51.276;6.390;2023-04-24T05:49:24;11.60;;;7.00;;
20997;SDS011;10657;51.276;6.390;2023-04-24T05:51:51;9.10;;;4.57;;
20997;SDS011;10657;51.276;6.390;2023-04-24T05:54:17;6.88;;;2.75;;
20997;SDS011;10657;51.276;6.390;2023-04-24T05:56:44;14.02;;;6.55;;
20997;SDS011;10657;51.276;6.390;2023-04-24T05:59:11;13.40;;;6.30;;
20997;SDS011;10657;51.276;6.390;2023-04-24T06:01:37;10.95;;;4.35;;
20997;SDS011;10657;51.276;6.390;2023-04-24T06:04:04;8.90;;;3.55;;
20997;SDS011;10657;51.276;6.390;2023-04-24T06:06:31;10.85;;;4.65;;
20997;SDS011;10657;51.276;6.390;2023-04-24T06:08:58;10.63;;;4.75;;
20997;SDS011;10657;51.276;6.390;2023-04-24T06:11:25;7.38;;;3.70;;
20997;SDS011;10657;51.276;6.390;2023-04-24T06:13:51;10.32;;;4.95;;
20997;SDS011;10657;51.276;6.390;2023-04-24T06:16:18;10.23;;;5.32;;
20997;SDS011;10657;51.276;6.390;2023-04-24T06:18:45;10.05;;;5.18;;
20997;SDS011;10657;51.276;6.390;2023-04-24T06:21:13;10.63;;;4.47;;
20997;SDS011;10657;51.276;6.390;2023-04-24T06:23:39;8.38;;;4.43;;
20997;SDS011;10657;51.276;6.390;2023-04-24T06:26:06;9.80;;;4.60;;
20997;SDS011;10657;51.276;6.390;2023-04-24T06:28:33;8.20;;;3.60;;
20997;SDS011;10657;51.276;6.390;2023-04-24T06:30:59;9.45;;;4.00;;
20997;SDS011;10657;51.276;6.390;2023-04-24T06:33:26;9.30;;;4.13;;
20997;SDS011;10657;51.276;6.390;2023-04-24T06:35:52;7.93;;;3.45;;
20997;SDS011;10657;51.276;6.390;2023-04-24T06:38:19;5.82;;;2.85;;
20997;SDS011;10657;51.276;6.390;2023-04-24T06:40:46;8.05;;;2.88;;
20997;SDS011;10657;51.276;6.390;2023-04-24T06:43:13;9.02;;;2.50;;
20997;SDS011;10657;51.276;6.390;2023-04-24T06:45:40;5.85;;;2.40;;
20997;SDS011;10657;51.276;6.390;2023-04-24T06:48:09;4.50;;;1.90;;
20997;SDS011;10657;51.276;6.390;2023-04-24T06:50:36;6.88;;;2.22;;
20997;SDS011;10657;51.276;6.390;2023-04-24T06:53:03;4.85;;;2.00;;
20997;SDS011;10657;51.276;6.390;2023-04-24T06:55:29;4.13;;;1.70;;
20997;SDS011;10657;51.276;6.390;2023-04-24T06:57:56;3.00;;;1.30;;
20997;SDS011;10657;51.276;6.390;2023-04-24T07:00:22;3.85;;;1.42;;
20997;SDS011;10657;51.276;6.390;2023-04-24T07:02:50;2.50;;;0.85;;
20997;SDS011;10657;51.276;6.390;2023-04-24T07:05:17;4.15;;;1.00;;
20997;SDS011;10657;51.276;6.390;2023-04-24T07:07:46;4.32;;;0.80;;
20997;SDS011;10657;51.276;6.390;2023-04-24T07:10:13;3.47;;;0.95;;
20997;SDS011;10657;51.276;6.390;2023-04-24T07:12:40;1.45;;;0.65;;
20997;SDS011;10657;51.276;6.390;2023-04-24T07:15:07;2.50;;;0.65;;
20997;SDS011;10657;51.276;6.390;2023-04-24T07:17:34;3.45;;;0.75;;
20997;SDS011;10657;51.276;6.390;2023-04-24T07:20:01;7.10;;;1.10;;
20997;SDS011;10657;51.276;6.390;2023-04-24T07:22:28;5.75;;;1.35;;
20997;SDS011;10657;51.276;6.390;2023-04-24T07:24:55;3.45;;;0.95;;
20997;SDS011;10657;51.276;6.390;2023-04-24T07:27:21;3.55;;;0.90;;
20997;SDS011;10657;51.276;6.390;2023-04-24T07:29:48;5.20;;;1.60;;
20997;SDS011;10657;51.276;6.390;2023-04-24T07:32:15;2.85;;;0.85;;
20997;SDS011;10657;51.276;6.390;2023-04-24T07:34:41;3.45;;;0.80;;
20997;SDS011;10657;51.276;6.390;2023-04-24T07:37:08;4.57;;;0.80;;
20997;SDS011;10657;51.276;6.390;2023-04-24T07:39:35;3.33;;;0.82;;
20997;SDS011;10657;51.276;6.390;2023-04-24T07:42:01;3.55;;;1.10;;
20997;SDS011;10657;51.276;6.390;2023-04-24T07:44:28;3.95;;;1.10;;
20997;SDS011;10657;51.276;6.390;2023-04-24T07:46:55;3.35;;;1.20;;
20997;SDS011;10657;51.276;6.390;2023-04-24T07:49:22;2.83;;;1.10;;
20997;SDS011;10657;51.276;6.390;2023-04-24T07:51:49;3.83;;;1.27;;
20997;SDS011;10657;51.276;6.390;2023-04-24T07:54:16;2.97;;;1.15;;
20997;SDS011;10657;51.276;6.390;2023-04-24T07:56:43;3.08;;;1.08;;
20997;SDS011;10657;51.276;6.390;2023-04-24T07:59:10;3.15;;;1.00;;
20997;SDS011;10657;51.276;6.390;2023-04-24T08:01:37;3.70;;;1.10;;
20997;SDS011;10657;51.276;6.390;2023-04-24T08:04:04;3.88;;;1.50;;
20997;SDS011;10657;51.276;6.390;2023-04-24T08:06:31;3.60;;;1.27;;
20997;SDS011;10657;51.276;6.390;2023-04-24T08:08:58;3.67;;;1.27;;
20997;SDS011;10657;51.276;6.390;2023-04-24T08:11:26;2.65;;;1.10;;
20997;SDS011;10657;51.276;6.390;2023-04-24T08:13:53;3.63;;;1.20;;
20997;SDS011;10657;51.276;6.390;2023-04-24T08:16:21;4.10;;;1.60;;
20997;SDS011;10657;51.276;6.390;2023-04-24T08:18:50;5.35;;;1.80;;
20997;SDS011;10657;51.276;6.390;2023-04-24T08:21:17;5.65;;;2.58;;
20997;SDS011;10657;51.276;6.390;2023-04-24T08:23:44;7.72;;;3.50;;
20997;SDS011;10657;51.276;6.390;2023-04-24T08:26:12;9.05;;;4.55;;
20997;SDS011;10657;51.276;6.390;2023-04-24T08:28:39;7.97;;;5.13;;
20997;SDS011;10657;51.276;6.390;2023-04-24T08:31:05;9.32;;;4.47;;
20997;SDS011;10657;51.276;6.390;2023-04-24T08:33:32;8.00;;;4.60;;
20997;SDS011;10657;51.276;6.390;2023-04-24T08:36:02;8.98;;;4.07;;
20997;SDS011;10657;51.276;6.390;2023-04-24T08:38:30;5.70;;;2.75;;
20997;SDS011;10657;51.276;6.390;2023-04-24T08:40:58;6.18;;;2.60;;
20997;SDS011;10657;51.276;6.390;2023-04-24T08:43:26;6.93;;;2.53;;
20997;SDS011;10657;51.276;6.390;2023-04-24T08:45:55;6.80;;;3.08;;
20997;SDS011;10657;51.276;6.390;2023-04-24T08:48:23;8.30;;;3.30;;
20997;SDS011;10657;51.276;6.390;2023-04-24T08:50:57;6.75;;;3.60;;
20997;SDS011;10657;51.276;6.390;2023-04-24T08:53:25;7.45;;;3.65;;
20997;SDS011;10657;51.276;6.390;2023-04-24T08:55:52;7.65;;;3.90;;
20997;SDS011;10657;51.276;6.390;2023-04-24T08:58:21;7.40;;;3.80;;
20997;SDS011;10657;51.276;6.390;2023-04-24T09:00:51;7.10;;;3.85;;
20997;SDS011;10657;51.276;6.390;2023-04-24T09:03:20;8.90;;;3.75;;
20997;SDS011;10657;51.276;6.390;2023-04-24T09:05:48;8.27;;;4.20;;
20997;SDS011;10657;51.276;6.390;2023-04-24T09:08:17;9.23;;;3.95;;
20997;SDS011;10657;51.276;6.390;2023-04-24T09:10:44;9.07;;;4.40;;
20997;SDS011;10657;51.276;6.390;2023-04-24T09:13:14;8.15;;;3.80;;
20997;SDS011;10657;51.276;6.390;2023-04-24T09:15:42;7.18;;;3.40;;
20997;SDS011;10657;51.276;6.390;2023-04-24T09:18:08;9.63;;;4.38;;
20997;SDS011;10657;51.276;6.390;2023-04-24T09:20:35;8.68;;;4.03;;
20997;SDS011;10657;51.276;6.390;2023-04-24T09:23:27;12.60;;;4.32;;
20997;SDS011;10657;51.276;6.390;2023-04-24T09:25:58;11.10;;;4.60;;
20997;SDS011;10657;51.276;6.390;2023-04-24T09:28:27;12.88;;;4.97;;
20997;SDS011;10657;51.276;6.390;2023-04-24T09:33:45;9.82;;;4.50;;
20997;SDS011;10657;51.276;6.390;2023-04-24T09:36:34;10.00;;;4.28;;
20997;SDS011;10657;51.276;6.390;2023-04-24T09:39:05;10.50;;;4.53;;
20997;SDS011;10657;51.276;6.390;2023-04-24T09:41:44;11.48;;;4.85;;
20997;SDS011;10657;51.276;6.390;2023-04-24T09:44:14;11.63;;;4.68;;
20997;SDS011;10657;51.276;6.390;2023-04-24T09:46:52;9.27;;;4.00;;
20997;SDS011;10657;51.276;6.390;2023-04-24T09:49:24;11.50;;;4.13;;
20997;SDS011;10657;51.276;6.390;2023-04-24T09:52:10;9.95;;;4.82;;
20997;SDS011;10657;51.276;6.390;2023-04-24T09:54:38;11.77;;;5.40;;
20997;SDS011;10657;51.276;6.390;2023-04-24T09:57:07;11.70;;;4.38;;
20997;SDS011;10657;51.276;6.390;2023-04-24T09:59:34;11.77;;;4.93;;
20997;SDS011;10657;51.276;6.390;2023-04-24T10:02:02;12.02;;;4.32;;
20997;SDS011;10657;51.276;6.390;2023-04-24T10:04:53;13.45;;;4.60;;
20997;SDS011;10657;51.276;6.390;2023-04-24T10:07:22;11.40;;;4.80;;
20997;SDS011;10657;51.276;6.390;2023-04-24T10:09:52;11.10;;;4.38;;
20997;SDS011;10657;51.276;6.390;2023-04-24T10:12:19;13.13;;;4.90;;
20997;SDS011;10657;51.276;6.390;2023-04-24T10:14:46;14.20;;;4.97;;
20997;SDS011;10657;51.276;6.390;2023-04-24T10:17:13;12.95;;;4.55;;
20997;SDS011;10657;51.276;6.390;2023-04-24T10:19:40;10.73;;;4.32;;
20997;SDS011;10657;51.276;6.390;2023-04-24T10:22:09;13.52;;;4.45;;
20997;SDS011;10657;51.276;6.390;2023-04-24T10:24:36;11.55;;;4.30;;
20997;SDS011;10657;51.276;6.390;2023-04-24T10:27:04;11.77;;;3.63;;
20997;SDS011;10657;51.276;6.390;2023-04-24T10:29:32;11.43;;;3.78;;
20997;SDS011;10657;51.276;6.390;2023-04-24T10:32:01;11.32;;;3.70;;
20997;SDS011;10657;51.276;6.390;2023-04-24T10:34:28;10.40;;;2.97;;
20997;SDS011;10657;51.276;6.390;2023-04-24T10:36:55;10.27;;;3.35;;
20997;SDS011;10657;51.276;6.390;2023-04-24T10:39:23;12.43;;;3.85;;
20997;SDS011;10657;51.276;6.390;2023-04-24T10:41:53;13.10;;;3.45;;
20997;SDS011;10657;51.276;6.390;2023-04-24T10:44:23;16.23;;;3.97;;
20997;SDS011;10657;51.276;6.390;2023-04-24T10:46:54;10.38;;;3.30;;
20997;SDS011;10657;51.276;6.390;2023-04-24T10:49:28;12.35;;;3.88;;
20997;SDS011;10657;51.276;6.390;2023-04-24T10:51:59;8.73;;;3.00;;
20997;SDS011;10657;51.276;6.390;2023-04-24T10:54:34;11.85;;;3.50;;
20997;SDS011;10657;51.276;6.390;2023-04-24T11:00:10;12.70;;;3.45;;
20997;SDS011;10657;51.276;6.390;2023-04-24T11:02:47;10.05;;;3.30;;
20997;SDS011;10657;51.276;6.390;2023-04-24T11:05:16;12.93;;;3.42;;
20997;SDS011;10657;51.276;6.390;2023-04-24T11:10:43;14.07;;;3.70;;
20997;SDS011;10657;51.276;6.390;2023-04-24T11:13:14;11.65;;;3.83;;
20997;SDS011;10657;51.276;6.390;2023-04-24T11:15:42;13.45;;;3.67;;
20997;SDS011;10657;51.276;6.390;2023-04-24T11:18:13;11.52;;;3.75;;
20997;SDS011;10657;51.276;6.390;2023-04-24T11:20:41;10.93;;;3.35;;
20997;SDS011;10657;51.276;6.390;2023-04-24T11:23:12;5.88;;;1.85;;
20997;SDS011;10657;51.276;6.390;2023-04-24T11:25:41;13.60;;;3.78;;
20997;SDS011;10657;51.276;6.390;2023-04-24T11:28:08;13.05;;;4.13;;
20997;SDS011;10657;51.276;6.390;2023-04-24T11:30:42;10.45;;;3.58;;
20997;SDS011;10657;51.276;6.390;2023-04-24T11:33:09;9.45;;;3.00;;
20997;SDS011;10657;51.276;6.390;2023-04-24T11:35:39;10.15;;;3.13;;
20997;SDS011;10657;51.276;6.390;2023-04-24T11:38:06;8.02;;;2.58;;
20997;SDS011;10657;51.276;6.390;2023-04-24T11:40:36;10.25;;;3.08;;
20997;SDS011;10657;51.276;6.390;2023-04-24T11:43:04;11.85;;;3.25;;
20997;SDS011;10657;51.276;6.390;2023-04-24T11:45:33;9.05;;;2.53;;
20997;SDS011;10657;51.276;6.390;2023-04-24T11:48:00;11.95;;;3.35;;
20997;SDS011;10657;51.276;6.390;2023-04-24T11:50:27;11.77;;;3.05;;
20997;SDS011;10657;51.276;6.390;2023-04-24T11:52:54;10.40;;;3.03;;
20997;SDS011;10657;51.276;6.390;2023-04-24T11:57:49;11.63;;;3.00;;
20997;SDS011;10657;51.276;6.390;2023-04-24T12:00:18;9.63;;;2.58;;
20997;SDS011;10657;51.276;6.390;2023-04-24T12:02:46;8.52;;;2.35;;
20997;SDS011;10657;51.276;6.390;2023-04-24T12:05:25;8.82;;;2.22;;
20997;SDS011;10657;51.276;6.390;2023-04-24T12:07:53;8.23;;;1.95;;
20997;SDS011;10657;51.276;6.390;2023-04-24T12:10:21;7.20;;;1.73;;
20997;SDS011;10657;51.276;6.390;2023-04-24T12:12:52;5.93;;;1.70;;
20997;SDS011;10657;51.276;6.390;2023-04-24T12:15:19;6.05;;;1.65;;
20997;SDS011;10657;51.276;6.390;2023-04-24T12:17:47;7.13;;;1.60;;
20997;SDS011;10657;51.276;6.390;2023-04-24T12:20:14;7.93;;;1.90;;
20997;SDS011;10657;51.276;6.390;2023-04-24T12:25:16;7.38;;;1.92;;
20997;SDS011;10657;51.276;6.390;2023-04-24T12:27:44;6.70;;;1.92;;
20997;SDS011;10657;51.276;6.390;2023-04-24T12:30:14;6.50;;;1.73;;
20997;SDS011;10657;51.276;6.390;2023-04-24T12:32:42;6.38;;;1.70;;
20997;SDS011;10657;51.276;6.390;2023-04-24T12:35:11;7.03;;;1.40;;
20997;SDS011;10657;51.276;6.390;2023-04-24T12:37:41;6.72;;;1.98;;
20997;SDS011;10657;51.276;6.390;2023-04-24T12:40:12;5.68;;;1.60;;
20997;SDS011;10657;51.276;6.390;2023-04-24T12:42:44;3.25;;;1.15;;
20997;SDS011;10657;51.276;6.390;2023-04-24T12:45:15;4.55;;;1.20;;
20997;SDS011;10657;51.276;6.390;2023-04-24T12:47:43;4.70;;;1.40;;
20997;SDS011;10657;51.276;6.390;2023-04-24T12:50:11;7.85;;;1.55;;
20997;SDS011;10657;51.276;6.390;2023-04-24T12:52:40;6.00;;;1.52;;
20997;SDS011;10657;51.276;6.390;2023-04-24T12:55:07;3.28;;;1.08;;
20997;SDS011;10657;51.276;6.390;2023-04-24T12:57:35;6.10;;;1.30;;
20997;SDS011;10657;51.276;6.390;2023-04-24T13:00:03;7.43;;;1.33;;
20997;SDS011;10657;51.276;6.390;2023-04-24T13:02:31;5.60;;;1.20;;
20997;SDS011;10657;51.276;6.390;2023-04-24T13:04:59;4.30;;;1.10;;
20997;SDS011;10657;51.276;6.390;2023-04-24T13:07:26;4.85;;;1.10;;
20997;SDS011;10657;51.276;6.390;2023-04-24T13:09:54;4.05;;;1.27;;
20997;SDS011;10657;51.276;6.390;2023-04-24T13:12:21;5.22;;;1.30;;
20997;SDS011;10657;51.276;6.390;2023-04-24T13:14:49;6.28;;;1.50;;
20997;SDS011;10657;51.276;6.390;2023-04-24T13:17:16;6.15;;;1.65;;
20997;SDS011;10657;51.276;6.390;2023-04-24T13:19:43;6.97;;;1.73;;
20997;SDS011;10657;51.276;6.390;2023-04-24T13:22:11;8.35;;;1.52;;
20997;SDS011;10657;51.276;6.390;2023-04-24T13:24:38;8.57;;;1.73;;
20997;SDS011;10657;51.276;6.390;2023-04-24T13:27:07;4.80;;;1.27;;
20997;SDS011;10657;51.276;6.390;2023-04-24T13:29:35;7.85;;;1.73;;
20997;SDS011;10657;51.276;6.390;2023-04-24T13:32:02;7.07;;;1.55;;
20997;SDS011;10657;51.276;6.390;2023-04-24T13:34:29;6.85;;;1.60;;
20997;SDS011;10657;51.276;6.390;2023-04-24T13:36:56;5.00;;;1.60;;
20997;SDS011;10657;51.276;6.390;2023-04-24T13:39:24;7.95;;;1.80;;
20997;SDS011;10657;51.276;6.390;2023-04-24T13:41:52;5.40;;;1.38;;
20997;SDS011;10657;51.276;6.390;2023-04-24T13:44:21;4.90;;;1.42;;
20997;SDS011;10657;51.276;6.390;2023-04-24T13:46:50;6.18;;;1.80;;
20997;SDS011;10657;51.276;6.390;2023-04-24T13:49:20;7.68;;;1.50;;
20997;SDS011;10657;51.276;6.390;2023-04-24T13:51:47;4.95;;;1.33;;
20997;SDS011;10657;51.276;6.390;2023-04-24T13:54:14;9.30;;;1.67;;
20997;SDS011;10657;51.276;6.390;2023-04-24T13:56:41;4.32;;;1.30;;
20997;SDS011;10657;51.276;6.390;2023-04-24T13:59:08;7.85;;;1.48;;
20997;SDS011;10657;51.276;6.390;2023-04-24T14:01:34;7.97;;;2.08;;
20997;SDS011;10657;51.276;6.390;2023-04-24T14:04:02;5.15;;;1.50;;
20997;SDS011;10657;51.276;6.390;2023-04-24T14:06:29;8.35;;;1.42;;
20997;SDS011;10657;51.276;6.390;2023-04-24T14:08:55;5.63;;;1.75;;
20997;SDS011;10657;51.276;6.390;2023-04-24T14:11:22;5.40;;;1.50;;
20997;SDS011;10657;51.276;6.390;2023-04-24T14:13:49;6.43;;;1.63;;
20997;SDS011;10657;51.276;6.390;2023-04-24T14:16:16;5.25;;;1.40;;
20997;SDS011;10657;51.276;6.390;2023-04-24T14:18:43;6.10;;;1.50;;
20997;SDS011;10657;51.276;6.390;2023-04-24T14:21:09;6.60;;;1.42;;
20997;SDS011;10657;51.276;6.390;2023-04-24T14:23:36;4.20;;;1.10;;
20997;SDS011;10657;51.276;6.390;2023-04-24T14:26:02;5.65;;;1.73;;
20997;SDS011;10657;51.276;6.390;2023-04-24T14:28:29;8.23;;;1.90;;
20997;SDS011;10657;51.276;6.390;2023-04-24T14:30:56;6.38;;;1.90;;
20997;SDS011;10657;51.276;6.390;2023-04-24T14:33:23;7.40;;;1.63;;
20997;SDS011;10657;51.276;6.390;2023-04-24T14:35:49;4.10;;;1.33;;
20997;SDS011;10657;51.276;6.390;2023-04-24T14:38:16;9.02;;;1.80;;
20997;SDS011;10657;51.276;6.390;2023-04-24T14:40:43;6.90;;;1.88;;
20997;SDS011;10657;51.276;6.390;2023-04-24T14:43:29;4.07;;;1.50;;
20997;SDS011;10657;51.276;6.390;2023-04-24T14:45:56;5.13;;;1.52;;
20997;SDS011;10657;51.276;6.390;2023-04-24T14:48:23;4.28;;;1.52;;
20997;SDS011;10657;51.276;6.390;2023-04-24T14:50:49;9.23;;;2.08;;
20997;SDS011;10657;51.276;6.390;2023-04-24T14:53:16;7.50;;;2.05;;
20997;SDS011;10657;51.276;6.390;2023-04-24T14:55:43;7.95;;;1.80;;
20997;SDS011;10657;51.276;6.390;2023-04-24T14:58:10;5.07;;;1.75;;